sensor_id;sensor_type;location;lat;lon;timestamp;P1;durP1;ratioP1;P2;durP2;ratioP2
64597;SDS011;51004;54.692;9.332;2023-04-03T00:00:29;4.38;;;3.28;;
64597;SDS011;51004;54.692;9.332;2023-04-03T00:02:56;4.07;;;2.80;;
64597;SDS011;51004;54.692;9.332;2023-04-03T00:05:22;3.70;;;2.47;;
64597;SDS011;51004;54.692;9.332;2023-04-03T00:07:48;4.80;;;2.50;;
64597;SDS011;51004;54.692;9.332;2023-04-03T00:10:15;5.15;;;3.28;;
64597;SDS011;51004;54.692;9.332;2023-04-03T00:12:41;4.18;;;2.75;;
64597;SDS011;51004;54.692;9.332;2023-04-03T00:15:07;4.75;;;3.05;;
64597;SDS011;51004;54.692;9.332;2023-04-03T00:17:33;5.13;;;3.15;;
64597;SDS011;51004;54.692;9.332;2023-04-03T00:19:59;9.15;;;3.28;;
64597;SDS011;51004;54.692;9.332;2023-04-03T00:22:25;5.28;;;2.60;;
64597;SDS011;51004;54.692;9.332;2023-04-03T00:24:53;5.57;;;2.92;;
64597;SDS011;51004;54.692;9.332;2023-04-03T00:27:19;6.28;;;3.35;;
64597;SDS011;51004;54.692;9.332;2023-04-03T00:29:45;7.68;;;3.38;;
64597;SDS011;51004;54.692;9.332;2023-04-03T00:32:11;6.00;;;3.10;;
64597;SDS011;51004;54.692;9.332;2023-04-03T00:34:37;7.55;;;3.38;;
64597;SDS011;51004;54.692;9.332;2023-04-03T00:37:03;4.72;;;3.08;;
64597;SDS011;51004;54.692;9.332;2023-04-03T00:39:29;5.68;;;3.42;;
64597;SDS011;51004;54.692;9.332;2023-04-03T00:41:56;5.82;;;2.95;;
64597;SDS011;51004;54.692;9.332;2023-04-03T00:45:21;8.20;;;3.58;;
64597;SDS011;51004;54.692;9.332;2023-04-03T00:47:10;7.18;;;4.13;;
64597;SDS011;51004;54.692;9.332;2023-04-03T00:49:37;7.65;;;3.40;;
64597;SDS011;51004;54.692;9.332;2023-04-03T00:52:03;5.72;;;3.75;;
64597;SDS011;51004;54.692;9.332;2023-04-03T00:54:31;6.93;;;3.70;;
64597;SDS011;51004;54.692;9.332;2023-04-03T00:56:58;8.32;;;4.00;;
64597;SDS011;51004;54.692;9.332;2023-04-03T00:59:26;9.38;;;4.10;;
64597;SDS011;51004;54.692;9.332;2023-04-03T01:01:53;4.93;;;3.58;;
64597;SDS011;51004;54.692;9.332;2023-04-03T01:06:52;7.57;;;3.57;;
64597;SDS011;51004;54.692;9.332;2023-04-03T01:09:20;6.30;;;3.30;;
64597;SDS011;51004;54.692;9.332;2023-04-03T01:11:46;7.90;;;3.75;;
64597;SDS011;51004;54.692;9.332;2023-04-03T01:14:13;8.95;;;3.85;;
64597;SDS011;51004;54.692;9.332;2023-04-03T01:16:39;4.95;;;3.42;;
64597;SDS011;51004;54.692;9.332;2023-04-03T01:19:09;5.80;;;3.38;;
64597;SDS011;51004;54.692;9.332;2023-04-03T01:21:44;5.03;;;3.10;;
64597;SDS011;51004;54.692;9.332;2023-04-03T01:24:31;6.95;;;3.42;;
64597;SDS011;51004;54.692;9.332;2023-04-03T01:26:58;5.57;;;3.30;;
64597;SDS011;51004;54.692;9.332;2023-04-03T01:29:24;5.47;;;3.25;;
64597;SDS011;51004;54.692;9.332;2023-04-03T01:31:51;5.32;;;3.42;;
64597;SDS011;51004;54.692;9.332;2023-04-03T01:34:18;6.47;;;3.13;;
64597;SDS011;51004;54.692;9.332;2023-04-03T01:36:44;7.93;;;4.15;;
64597;SDS011;51004;54.692;9.332;2023-04-03T01:39:11;6.68;;;3.63;;
64597;SDS011;51004;54.692;9.332;2023-04-03T01:41:37;4.38;;;3.28;;
64597;SDS011;51004;54.692;9.332;2023-04-03T01:44:03;6.95;;;3.60;;
64597;SDS011;51004;54.692;9.332;2023-04-03T01:46:29;5.25;;;3.38;;
64597;SDS011;51004;54.692;9.332;2023-04-03T01:48:55;7.80;;;3.67;;
64597;SDS011;51004;54.692;9.332;2023-04-03T01:51:21;7.15;;;3.83;;
64597;SDS011;51004;54.692;9.332;2023-04-03T01:53:47;7.32;;;3.53;;
64597;SDS011;51004;54.692;9.332;2023-04-03T01:56:13;6.07;;;3.58;;
64597;SDS011;51004;54.692;9.332;2023-04-03T01:58:40;4.85;;;3.33;;
64597;SDS011;51004;54.692;9.332;2023-04-03T02:01:06;4.15;;;3.15;;
64597;SDS011;51004;54.692;9.332;2023-04-03T02:03:32;6.13;;;3.78;;
64597;SDS011;51004;54.692;9.332;2023-04-03T02:05:58;6.15;;;3.33;;
64597;SDS011;51004;54.692;9.332;2023-04-03T02:08:24;5.50;;;3.40;;
64597;SDS011;51004;54.692;9.332;2023-04-03T02:10:51;6.88;;;3.50;;
64597;SDS011;51004;54.692;9.332;2023-04-03T02:13:26;6.95;;;3.78;;
64597;SDS011;51004;54.692;9.332;2023-04-03T02:15:52;5.65;;;3.13;;
64597;SDS011;51004;54.692;9.332;2023-04-03T02:18:21;5.43;;;3.08;;
64597;SDS011;51004;54.692;9.332;2023-04-03T02:20:47;5.55;;;3.05;;
64597;SDS011;51004;54.692;9.332;2023-04-03T02:23:13;6.30;;;3.17;;
64597;SDS011;51004;54.692;9.332;2023-04-03T02:25:39;4.93;;;3.40;;
64597;SDS011;51004;54.692;9.332;2023-04-03T02:28:05;5.57;;;3.88;;
64597;SDS011;51004;54.692;9.332;2023-04-03T02:30:31;7.10;;;3.20;;
64597;SDS011;51004;54.692;9.332;2023-04-03T02:32:57;10.52;;;4.45;;
64597;SDS011;51004;54.692;9.332;2023-04-03T02:35:23;6.13;;;3.22;;
64597;SDS011;51004;54.692;9.332;2023-04-03T02:37:59;5.82;;;3.70;;
64597;SDS011;51004;54.692;9.332;2023-04-03T02:40:34;5.55;;;3.47;;
64597;SDS011;51004;54.692;9.332;2023-04-03T02:43:00;5.45;;;3.63;;
64597;SDS011;51004;54.692;9.332;2023-04-03T02:45:26;5.45;;;3.60;;
64597;SDS011;51004;54.692;9.332;2023-04-03T02:47:52;8.80;;;3.60;;
64597;SDS011;51004;54.692;9.332;2023-04-03T02:50:18;6.05;;;3.70;;
64597;SDS011;51004;54.692;9.332;2023-04-03T02:52:44;5.75;;;3.40;;
64597;SDS011;51004;54.692;9.332;2023-04-03T02:55:13;8.52;;;4.05;;
64597;SDS011;51004;54.692;9.332;2023-04-03T02:57:40;6.88;;;3.90;;
64597;SDS011;51004;54.692;9.332;2023-04-03T03:00:07;6.82;;;3.95;;
64597;SDS011;51004;54.692;9.332;2023-04-03T03:02:33;8.18;;;4.05;;
64597;SDS011;51004;54.692;9.332;2023-04-03T03:05:00;5.90;;;3.97;;
64597;SDS011;51004;54.692;9.332;2023-04-03T03:07:26;5.40;;;3.40;;
64597;SDS011;51004;54.692;9.332;2023-04-03T03:09:52;6.22;;;3.47;;
64597;SDS011;51004;54.692;9.332;2023-04-03T03:12:18;6.43;;;3.53;;
64597;SDS011;51004;54.692;9.332;2023-04-03T03:14:46;6.57;;;4.20;;
64597;SDS011;51004;54.692;9.332;2023-04-03T03:17:12;6.35;;;3.65;;
64597;SDS011;51004;54.692;9.332;2023-04-03T03:19:38;8.93;;;3.53;;
64597;SDS011;51004;54.692;9.332;2023-04-03T03:22:04;8.82;;;4.07;;
64597;SDS011;51004;54.692;9.332;2023-04-03T03:24:30;5.22;;;3.72;;
64597;SDS011;51004;54.692;9.332;2023-04-03T03:26:56;8.27;;;3.78;;
64597;SDS011;51004;54.692;9.332;2023-04-03T03:29:22;6.13;;;3.70;;
64597;SDS011;51004;54.692;9.332;2023-04-03T03:31:48;8.20;;;3.47;;
64597;SDS011;51004;54.692;9.332;2023-04-03T03:34:14;6.55;;;3.65;;
64597;SDS011;51004;54.692;9.332;2023-04-03T03:36:40;7.43;;;3.40;;
64597;SDS011;51004;54.692;9.332;2023-04-03T03:39:06;4.97;;;3.40;;
64597;SDS011;51004;54.692;9.332;2023-04-03T03:41:32;9.20;;;3.35;;
64597;SDS011;51004;54.692;9.332;2023-04-03T03:43:58;7.68;;;3.85;;
64597;SDS011;51004;54.692;9.332;2023-04-03T03:46:25;5.63;;;3.45;;
64597;SDS011;51004;54.692;9.332;2023-04-03T03:48:51;4.72;;;3.25;;
64597;SDS011;51004;54.692;9.332;2023-04-03T03:51:17;7.10;;;3.35;;
64597;SDS011;51004;54.692;9.332;2023-04-03T03:53:43;5.82;;;3.08;;
64597;SDS011;51004;54.692;9.332;2023-04-03T03:56:08;6.05;;;3.40;;
64597;SDS011;51004;54.692;9.332;2023-04-03T03:58:35;5.82;;;3.25;;
64597;SDS011;51004;54.692;9.332;2023-04-03T04:01:04;6.10;;;3.85;;
64597;SDS011;51004;54.692;9.332;2023-04-03T04:03:31;5.07;;;3.00;;
64597;SDS011;51004;54.692;9.332;2023-04-03T04:05:57;6.97;;;3.00;;
64597;SDS011;51004;54.692;9.332;2023-04-03T04:08:23;5.45;;;3.30;;
64597;SDS011;51004;54.692;9.332;2023-04-03T04:10:49;9.65;;;3.58;;
64597;SDS011;51004;54.692;9.332;2023-04-03T04:13:15;6.25;;;3.30;;
64597;SDS011;51004;54.692;9.332;2023-04-03T04:15:42;8.20;;;3.78;;
64597;SDS011;51004;54.692;9.332;2023-04-03T04:18:08;7.25;;;3.40;;
64597;SDS011;51004;54.692;9.332;2023-04-03T04:20:34;7.20;;;3.42;;
64597;SDS011;51004;54.692;9.332;2023-04-03T04:23:00;6.93;;;3.97;;
64597;SDS011;51004;54.692;9.332;2023-04-03T04:25:26;7.15;;;2.78;;
64597;SDS011;51004;54.692;9.332;2023-04-03T04:27:52;6.20;;;3.08;;
64597;SDS011;51004;54.692;9.332;2023-04-03T04:30:18;6.50;;;3.60;;
64597;SDS011;51004;54.692;9.332;2023-04-03T04:32:44;5.53;;;2.85;;
64597;SDS011;51004;54.692;9.332;2023-04-03T04:35:10;5.22;;;3.47;;
64597;SDS011;51004;54.692;9.332;2023-04-03T04:37:36;6.10;;;3.80;;
64597;SDS011;51004;54.692;9.332;2023-04-03T04:40:02;5.07;;;3.00;;
64597;SDS011;51004;54.692;9.332;2023-04-03T04:42:28;4.22;;;2.65;;
64597;SDS011;51004;54.692;9.332;2023-04-03T04:44:54;5.05;;;2.90;;
64597;SDS011;51004;54.692;9.332;2023-04-03T04:47:20;5.40;;;3.10;;
64597;SDS011;51004;54.692;9.332;2023-04-03T04:49:46;7.18;;;2.75;;
64597;SDS011;51004;54.692;9.332;2023-04-03T04:52:13;6.72;;;3.00;;
64597;SDS011;51004;54.692;9.332;2023-04-03T04:54:39;6.32;;;3.05;;
64597;SDS011;51004;54.692;9.332;2023-04-03T04:57:05;5.45;;;2.88;;
64597;SDS011;51004;54.692;9.332;2023-04-03T04:59:31;6.45;;;3.55;;
64597;SDS011;51004;54.692;9.332;2023-04-03T05:01:57;7.65;;;3.10;;
64597;SDS011;51004;54.692;9.332;2023-04-03T05:04:23;5.53;;;3.13;;
64597;SDS011;51004;54.692;9.332;2023-04-03T05:06:49;4.60;;;2.60;;
64597;SDS011;51004;54.692;9.332;2023-04-03T05:09:15;4.65;;;2.58;;
64597;SDS011;51004;54.692;9.332;2023-04-03T05:11:41;4.82;;;2.40;;
64597;SDS011;51004;54.692;9.332;2023-04-03T05:14:08;4.47;;;2.60;;
64597;SDS011;51004;54.692;9.332;2023-04-03T05:16:34;4.75;;;2.70;;
64597;SDS011;51004;54.692;9.332;2023-04-03T05:19:00;7.05;;;2.85;;
64597;SDS011;51004;54.692;9.332;2023-04-03T05:21:26;5.78;;;3.17;;
64597;SDS011;51004;54.692;9.332;2023-04-03T05:23:56;4.68;;;2.60;;
64597;SDS011;51004;54.692;9.332;2023-04-03T05:26:22;7.13;;;3.47;;
64597;SDS011;51004;54.692;9.332;2023-04-03T05:28:48;6.78;;;3.08;;
64597;SDS011;51004;54.692;9.332;2023-04-03T05:31:14;4.97;;;2.78;;
64597;SDS011;51004;54.692;9.332;2023-04-03T05:33:40;4.57;;;2.78;;
64597;SDS011;51004;54.692;9.332;2023-04-03T05:36:06;6.57;;;3.22;;
64597;SDS011;51004;54.692;9.332;2023-04-03T05:38:32;5.97;;;3.05;;
64597;SDS011;51004;54.692;9.332;2023-04-03T05:40:58;5.53;;;3.30;;
64597;SDS011;51004;54.692;9.332;2023-04-03T05:43:24;6.15;;;3.25;;
64597;SDS011;51004;54.692;9.332;2023-04-03T05:45:51;8.00;;;3.17;;
64597;SDS011;51004;54.692;9.332;2023-04-03T05:48:17;6.00;;;3.40;;
64597;SDS011;51004;54.692;9.332;2023-04-03T05:50:43;7.85;;;3.40;;
64597;SDS011;51004;54.692;9.332;2023-04-03T05:53:17;7.40;;;3.53;;
64597;SDS011;51004;54.692;9.332;2023-04-03T05:55:43;6.55;;;3.10;;
64597;SDS011;51004;54.692;9.332;2023-04-03T05:58:10;6.88;;;3.25;;
64597;SDS011;51004;54.692;9.332;2023-04-03T06:00:36;5.97;;;3.08;;
64597;SDS011;51004;54.692;9.332;2023-04-03T06:03:02;15.02;;;3.50;;
64597;SDS011;51004;54.692;9.332;2023-04-03T06:05:28;12.82;;;3.80;;
64597;SDS011;51004;54.692;9.332;2023-04-03T06:07:54;10.50;;;3.83;;
64597;SDS011;51004;54.692;9.332;2023-04-03T06:10:20;11.32;;;3.97;;
64597;SDS011;51004;54.692;9.332;2023-04-03T06:12:50;6.63;;;3.65;;
64597;SDS011;51004;54.692;9.332;2023-04-03T06:15:16;7.63;;;3.80;;
64597;SDS011;51004;54.692;9.332;2023-04-03T06:17:42;10.43;;;3.78;;
64597;SDS011;51004;54.692;9.332;2023-04-03T06:20:09;7.07;;;3.60;;
64597;SDS011;51004;54.692;9.332;2023-04-03T06:22:35;6.50;;;3.53;;
64597;SDS011;51004;54.692;9.332;2023-04-03T06:25:01;7.15;;;4.03;;
64597;SDS011;51004;54.692;9.332;2023-04-03T06:27:27;8.10;;;4.00;;
64597;SDS011;51004;54.692;9.332;2023-04-03T06:29:53;6.03;;;3.42;;
64597;SDS011;51004;54.692;9.332;2023-04-03T06:32:19;9.38;;;3.80;;
64597;SDS011;51004;54.692;9.332;2023-04-03T06:34:45;8.32;;;3.60;;
64597;SDS011;51004;54.692;9.332;2023-04-03T06:37:19;5.55;;;3.03;;
64597;SDS011;51004;54.692;9.332;2023-04-03T06:39:54;8.60;;;3.70;;
64597;SDS011;51004;54.692;9.332;2023-04-03T06:42:21;7.60;;;3.83;;
64597;SDS011;51004;54.692;9.332;2023-04-03T06:44:47;7.20;;;3.30;;
64597;SDS011;51004;54.692;9.332;2023-04-03T06:47:16;6.30;;;4.00;;
64597;SDS011;51004;54.692;9.332;2023-04-03T06:49:42;9.40;;;3.50;;
64597;SDS011;51004;54.692;9.332;2023-04-03T06:52:08;8.18;;;3.58;;
64597;SDS011;51004;54.692;9.332;2023-04-03T06:54:37;5.75;;;3.35;;
64597;SDS011;51004;54.692;9.332;2023-04-03T06:57:03;9.77;;;4.40;;
64597;SDS011;51004;54.692;9.332;2023-04-03T06:59:29;6.47;;;4.22;;
64597;SDS011;51004;54.692;9.332;2023-04-03T07:01:55;5.53;;;2.90;;
64597;SDS011;51004;54.692;9.332;2023-04-03T07:04:21;6.80;;;3.83;;
64597;SDS011;51004;54.692;9.332;2023-04-03T07:06:47;7.35;;;4.30;;
64597;SDS011;51004;54.692;9.332;2023-04-03T07:09:14;10.35;;;4.60;;
64597;SDS011;51004;54.692;9.332;2023-04-03T07:11:40;9.05;;;4.65;;
64597;SDS011;51004;54.692;9.332;2023-04-03T07:14:06;9.40;;;5.03;;
64597;SDS011;51004;54.692;9.332;2023-04-03T07:16:35;7.78;;;4.93;;
64597;SDS011;51004;54.692;9.332;2023-04-03T07:19:02;12.25;;;4.85;;
64597;SDS011;51004;54.692;9.332;2023-04-03T07:21:28;12.32;;;4.65;;
64597;SDS011;51004;54.692;9.332;2023-04-03T07:23:54;14.93;;;5.25;;
64597;SDS011;51004;54.692;9.332;2023-04-03T07:26:20;10.35;;;5.25;;
64597;SDS011;51004;54.692;9.332;2023-04-03T07:28:47;9.65;;;5.03;;
64597;SDS011;51004;54.692;9.332;2023-04-03T07:31:13;15.63;;;6.25;;
64597;SDS011;51004;54.692;9.332;2023-04-03T07:33:40;12.25;;;4.50;;
64597;SDS011;51004;54.692;9.332;2023-04-03T07:36:07;14.23;;;5.97;;
64597;SDS011;51004;54.692;9.332;2023-04-03T07:38:33;10.30;;;5.20;;
64597;SDS011;51004;54.692;9.332;2023-04-03T07:41:00;9.23;;;4.97;;
64597;SDS011;51004;54.692;9.332;2023-04-03T07:43:26;6.82;;;4.20;;
64597;SDS011;51004;54.692;9.332;2023-04-03T07:45:52;8.90;;;5.20;;
64597;SDS011;51004;54.692;9.332;2023-04-03T07:48:23;10.15;;;4.70;;
64597;SDS011;51004;54.692;9.332;2023-04-03T07:50:49;10.98;;;5.05;;
64597;SDS011;51004;54.692;9.332;2023-04-03T07:53:16;8.75;;;4.60;;
64597;SDS011;51004;54.692;9.332;2023-04-03T07:55:42;10.15;;;4.57;;
64597;SDS011;51004;54.692;9.332;2023-04-03T07:58:12;10.52;;;5.25;;
64597;SDS011;51004;54.692;9.332;2023-04-03T08:00:39;9.88;;;4.85;;
64597;SDS011;51004;54.692;9.332;2023-04-03T08:03:05;13.95;;;5.80;;
64597;SDS011;51004;54.692;9.332;2023-04-03T08:05:35;7.72;;;4.57;;
64597;SDS011;51004;54.692;9.332;2023-04-03T08:08:02;7.95;;;4.30;;
64597;SDS011;51004;54.692;9.332;2023-04-03T08:10:29;10.15;;;4.95;;
64597;SDS011;51004;54.692;9.332;2023-04-03T08:12:55;9.40;;;4.60;;
64597;SDS011;51004;54.692;9.332;2023-04-03T08:15:21;7.35;;;3.65;;
64597;SDS011;51004;54.692;9.332;2023-04-03T08:17:47;7.18;;;3.63;;
64597;SDS011;51004;54.692;9.332;2023-04-03T08:20:13;8.57;;;4.18;;
64597;SDS011;51004;54.692;9.332;2023-04-03T08:22:39;4.18;;;3.28;;
64597;SDS011;51004;54.692;9.332;2023-04-03T08:25:05;6.05;;;3.50;;
64597;SDS011;51004;54.692;9.332;2023-04-03T08:27:31;7.20;;;3.70;;
64597;SDS011;51004;54.692;9.332;2023-04-03T08:29:57;5.60;;;2.72;;
64597;SDS011;51004;54.692;9.332;2023-04-03T08:32:24;6.07;;;2.75;;
64597;SDS011;51004;54.692;9.332;2023-04-03T08:34:50;4.68;;;2.78;;
64597;SDS011;51004;54.692;9.332;2023-04-03T08:37:16;5.75;;;2.42;;
64597;SDS011;51004;54.692;9.332;2023-04-03T08:39:44;7.85;;;3.15;;
64597;SDS011;51004;54.692;9.332;2023-04-03T08:47:15;5.28;;;3.17;;
64597;SDS011;51004;54.692;9.332;2023-04-03T08:54:57;5.50;;;2.70;;
64597;SDS011;51004;54.692;9.332;2023-04-03T08:57:30;5.45;;;2.90;;
64597;SDS011;51004;54.692;9.332;2023-04-03T08:59:58;7.88;;;3.05;;
64597;SDS011;51004;54.692;9.332;2023-04-03T09:02:29;6.93;;;2.50;;
64597;SDS011;51004;54.692;9.332;2023-04-03T09:04:57;5.78;;;2.60;;
64597;SDS011;51004;54.692;9.332;2023-04-03T09:07:31;6.97;;;2.75;;
64597;SDS011;51004;54.692;9.332;2023-04-03T09:09:59;5.95;;;2.63;;
64597;SDS011;51004;54.692;9.332;2023-04-03T09:12:29;7.47;;;2.13;;
64597;SDS011;51004;54.692;9.332;2023-04-03T09:15:01;5.70;;;2.58;;
64597;SDS011;51004;54.692;9.332;2023-04-03T09:17:41;6.03;;;2.85;;
64597;SDS011;51004;54.692;9.332;2023-04-03T09:22:54;6.90;;;2.35;;
64597;SDS011;51004;54.692;9.332;2023-04-03T09:25:25;6.43;;;2.35;;
64597;SDS011;51004;54.692;9.332;2023-04-03T09:27:51;5.50;;;2.33;;
64597;SDS011;51004;54.692;9.332;2023-04-03T09:30:19;8.40;;;2.58;;
64597;SDS011;51004;54.692;9.332;2023-04-03T09:32:47;5.72;;;2.50;;
64597;SDS011;51004;54.692;9.332;2023-04-03T09:37:40;3.60;;;2.30;;
64597;SDS011;51004;54.692;9.332;2023-04-03T09:40:28;6.22;;;2.47;;
64597;SDS011;51004;54.692;9.332;2023-04-03T09:43:08;4.38;;;2.70;;
64597;SDS011;51004;54.692;9.332;2023-04-03T09:45:39;8.25;;;2.92;;
64597;SDS011;51004;54.692;9.332;2023-04-03T09:48:06;6.88;;;2.78;;
64597;SDS011;51004;54.692;9.332;2023-04-03T09:50:34;2.90;;;1.90;;
64597;SDS011;51004;54.692;9.332;2023-04-03T09:53:04;4.63;;;2.40;;
64597;SDS011;51004;54.692;9.332;2023-04-03T09:55:32;6.03;;;2.63;;
64597;SDS011;51004;54.692;9.332;2023-04-03T09:58:02;7.28;;;2.92;;
64597;SDS011;51004;54.692;9.332;2023-04-03T10:00:36;8.38;;;3.05;;
64597;SDS011;51004;54.692;9.332;2023-04-03T10:03:04;6.10;;;3.05;;
64597;SDS011;51004;54.692;9.332;2023-04-03T10:05:38;5.97;;;2.63;;
64597;SDS011;51004;54.692;9.332;2023-04-03T10:10:41;7.28;;;2.53;;
64597;SDS011;51004;54.692;9.332;2023-04-03T10:13:09;7.03;;;2.05;;
64597;SDS011;51004;54.692;9.332;2023-04-03T10:15:41;4.78;;;1.95;;
64597;SDS011;51004;54.692;9.332;2023-04-03T10:18:23;6.88;;;2.28;;
64597;SDS011;51004;54.692;9.332;2023-04-03T10:20:53;6.63;;;2.28;;
64597;SDS011;51004;54.692;9.332;2023-04-03T10:23:22;3.13;;;1.95;;
64597;SDS011;51004;54.692;9.332;2023-04-03T10:28:28;2.97;;;1.80;;
64597;SDS011;51004;54.692;9.332;2023-04-03T10:41:34;4.45;;;2.30;;
64597;SDS011;51004;54.692;9.332;2023-04-03T10:46:41;6.35;;;2.70;;
64597;SDS011;51004;54.692;9.332;2023-04-03T10:49:22;5.93;;;2.92;;
64597;SDS011;51004;54.692;9.332;2023-04-03T10:51:56;5.32;;;2.25;;
64597;SDS011;51004;54.692;9.332;2023-04-03T10:54:25;5.15;;;2.92;;
64597;SDS011;51004;54.692;9.332;2023-04-03T10:57:10;3.97;;;2.20;;
64597;SDS011;51004;54.692;9.332;2023-04-03T10:59:38;4.00;;;2.08;;
64597;SDS011;51004;54.692;9.332;2023-04-03T11:04:36;3.95;;;2.30;;
64597;SDS011;51004;54.692;9.332;2023-04-03T11:07:12;5.53;;;2.28;;
64597;SDS011;51004;54.692;9.332;2023-04-03T11:09:41;6.05;;;2.85;;
64597;SDS011;51004;54.692;9.332;2023-04-03T11:14:35;5.38;;;2.65;;
64597;SDS011;51004;54.692;9.332;2023-04-03T11:17:08;7.03;;;3.30;;
64597;SDS011;51004;54.692;9.332;2023-04-03T11:19:49;3.22;;;1.95;;
64597;SDS011;51004;54.692;9.332;2023-04-03T11:22:23;7.68;;;2.67;;
64597;SDS011;51004;54.692;9.332;2023-04-03T11:24:55;4.05;;;1.77;;
64597;SDS011;51004;54.692;9.332;2023-04-03T11:27:23;3.95;;;2.33;;
64597;SDS011;51004;54.692;9.332;2023-04-03T11:29:50;4.32;;;1.95;;
64597;SDS011;51004;54.692;9.332;2023-04-03T11:34:47;4.68;;;2.00;;
64597;SDS011;51004;54.692;9.332;2023-04-03T11:37:34;4.28;;;1.88;;
64597;SDS011;51004;54.692;9.332;2023-04-03T11:42:34;4.93;;;1.40;;
64597;SDS011;51004;54.692;9.332;2023-04-03T11:47:54;5.80;;;1.55;;
64597;SDS011;51004;54.692;9.332;2023-04-03T12:05:51;2.72;;;1.30;;
64597;SDS011;51004;54.692;9.332;2023-04-03T12:08:27;2.72;;;1.40;;
64597;SDS011;51004;54.692;9.332;2023-04-03T12:21:22;2.90;;;1.20;;
64597;SDS011;51004;54.692;9.332;2023-04-03T12:24:00;4.15;;;1.02;;
64597;SDS011;51004;54.692;9.332;2023-04-03T12:27:16;5.45;;;1.20;;
64597;SDS011;51004;54.692;9.332;2023-04-03T12:37:21;4.40;;;1.20;;
64597;SDS011;51004;54.692;9.332;2023-04-03T12:39:58;3.30;;;1.20;;
64597;SDS011;51004;54.692;9.332;2023-04-03T12:42:32;2.78;;;0.98;;
64597;SDS011;51004;54.692;9.332;2023-04-03T12:47:34;3.70;;;1.20;;
64597;SDS011;51004;54.692;9.332;2023-04-03T12:50:03;3.70;;;1.23;;
64597;SDS011;51004;54.692;9.332;2023-04-03T12:52:44;2.63;;;1.30;;
64597;SDS011;51004;54.692;9.332;2023-04-03T12:55:15;3.13;;;1.00;;
64597;SDS011;51004;54.692;9.332;2023-04-03T12:57:41;2.88;;;1.02;;
64597;SDS011;51004;54.692;9.332;2023-04-03T13:02:46;2.83;;;1.00;;
64597;SDS011;51004;54.692;9.332;2023-04-03T13:05:16;4.70;;;1.30;;
64597;SDS011;51004;54.692;9.332;2023-04-03T13:08:25;3.63;;;1.17;;
64597;SDS011;51004;54.692;9.332;2023-04-03T13:10:32;2.40;;;1.10;;
64597;SDS011;51004;54.692;9.332;2023-04-03T13:13:06;3.05;;;1.10;;
64597;SDS011;51004;54.692;9.332;2023-04-03T13:15:43;4.88;;;1.00;;
64597;SDS011;51004;54.692;9.332;2023-04-03T13:20:58;3.13;;;1.48;;
64597;SDS011;51004;54.692;9.332;2023-04-03T13:23:26;4.25;;;1.42;;
64597;SDS011;51004;54.692;9.332;2023-04-03T13:25:52;3.55;;;1.27;;
64597;SDS011;51004;54.692;9.332;2023-04-03T13:28:22;3.42;;;1.25;;
64597;SDS011;51004;54.692;9.332;2023-04-03T13:30:59;3.05;;;0.98;;
64597;SDS011;51004;54.692;9.332;2023-04-03T13:33:27;3.78;;;1.20;;
64597;SDS011;51004;54.692;9.332;2023-04-03T13:36:00;2.22;;;1.00;;
64597;SDS011;51004;54.692;9.332;2023-04-03T13:38:29;3.65;;;1.33;;
64597;SDS011;51004;54.692;9.332;2023-04-03T13:41:00;5.35;;;1.33;;
64597;SDS011;51004;54.692;9.332;2023-04-03T13:43:29;3.67;;;0.88;;
64597;SDS011;51004;54.692;9.332;2023-04-03T13:46:04;3.40;;;1.20;;
64597;SDS011;51004;54.692;9.332;2023-04-03T13:48:35;4.63;;;1.15;;
64597;SDS011;51004;54.692;9.332;2023-04-03T13:51:02;7.35;;;2.22;;
64597;SDS011;51004;54.692;9.332;2023-04-03T13:53:29;4.18;;;1.20;;
64597;SDS011;51004;54.692;9.332;2023-04-03T13:56:06;4.40;;;1.13;;
64597;SDS011;51004;54.692;9.332;2023-04-03T13:58:33;4.70;;;1.00;;
64597;SDS011;51004;54.692;9.332;2023-04-03T14:03:30;2.53;;;1.13;;
64597;SDS011;51004;54.692;9.332;2023-04-03T14:05:56;3.45;;;1.10;;
64597;SDS011;51004;54.692;9.332;2023-04-03T14:08:22;4.05;;;1.17;;
64597;SDS011;51004;54.692;9.332;2023-04-03T14:10:48;3.60;;;1.23;;
64597;SDS011;51004;54.692;9.332;2023-04-03T14:13:15;2.97;;;1.17;;
64597;SDS011;51004;54.692;9.332;2023-04-03T14:15:42;5.82;;;1.15;;
64597;SDS011;51004;54.692;9.332;2023-04-03T14:18:12;4.97;;;1.40;;
64597;SDS011;51004;54.692;9.332;2023-04-03T14:20:38;3.05;;;1.40;;
64597;SDS011;51004;54.692;9.332;2023-04-03T14:23:04;5.18;;;1.50;;
64597;SDS011;51004;54.692;9.332;2023-04-03T14:25:31;3.97;;;1.30;;
64597;SDS011;51004;54.692;9.332;2023-04-03T14:27:57;3.60;;;1.40;;
64597;SDS011;51004;54.692;9.332;2023-04-03T14:30:32;4.32;;;1.25;;
64597;SDS011;51004;54.692;9.332;2023-04-03T14:32:59;3.50;;;0.93;;
64597;SDS011;51004;54.692;9.332;2023-04-03T14:35:25;3.45;;;1.00;;
64597;SDS011;51004;54.692;9.332;2023-04-03T14:37:52;2.83;;;1.08;;
64597;SDS011;51004;54.692;9.332;2023-04-03T14:40:23;3.10;;;1.30;;
64597;SDS011;51004;54.692;9.332;2023-04-03T14:42:50;2.92;;;1.02;;
64597;SDS011;51004;54.692;9.332;2023-04-03T14:45:16;2.95;;;1.13;;
64597;SDS011;51004;54.692;9.332;2023-04-03T14:48:01;2.13;;;1.27;;
64597;SDS011;51004;54.692;9.332;2023-04-03T14:50:28;2.42;;;0.90;;
64597;SDS011;51004;54.692;9.332;2023-04-03T14:52:56;3.33;;;1.33;;
64597;SDS011;51004;54.692;9.332;2023-04-03T14:55:23;3.47;;;1.40;;
64597;SDS011;51004;54.692;9.332;2023-04-03T14:57:49;3.85;;;1.58;;
64597;SDS011;51004;54.692;9.332;2023-04-03T15:00:16;4.35;;;1.50;;
64597;SDS011;51004;54.692;9.332;2023-04-03T15:02:42;3.70;;;1.38;;
64597;SDS011;51004;54.692;9.332;2023-04-03T15:05:09;4.97;;;1.50;;
64597;SDS011;51004;54.692;9.332;2023-04-03T15:07:36;3.22;;;1.30;;
64597;SDS011;51004;54.692;9.332;2023-04-03T15:12:49;3.67;;;1.05;;
64597;SDS011;51004;54.692;9.332;2023-04-03T15:15:17;4.03;;;1.60;;
64597;SDS011;51004;54.692;9.332;2023-04-03T15:17:45;3.92;;;1.77;;
64597;SDS011;51004;54.692;9.332;2023-04-03T15:20:14;5.35;;;1.17;;
64597;SDS011;51004;54.692;9.332;2023-04-03T15:22:40;2.45;;;1.05;;
64597;SDS011;51004;54.692;9.332;2023-04-03T15:25:06;6.43;;;1.25;;
64597;SDS011;51004;54.692;9.332;2023-04-03T15:27:32;5.80;;;1.50;;
64597;SDS011;51004;54.692;9.332;2023-04-03T15:29:58;3.33;;;1.27;;
64597;SDS011;51004;54.692;9.332;2023-04-03T15:32:24;2.65;;;1.20;;
64597;SDS011;51004;54.692;9.332;2023-04-03T15:34:50;3.65;;;0.85;;
64597;SDS011;51004;54.692;9.332;2023-04-03T15:37:16;2.70;;;1.13;;
64597;SDS011;51004;54.692;9.332;2023-04-03T15:39:42;4.22;;;1.25;;
64597;SDS011;51004;54.692;9.332;2023-04-03T15:42:09;3.90;;;1.20;;
64597;SDS011;51004;54.692;9.332;2023-04-03T15:44:38;5.68;;;1.30;;
64597;SDS011;51004;54.692;9.332;2023-04-03T15:47:04;3.45;;;1.38;;
64597;SDS011;51004;54.692;9.332;2023-04-03T15:49:32;2.47;;;1.25;;
64597;SDS011;51004;54.692;9.332;2023-04-03T15:51:58;4.63;;;1.48;;
64597;SDS011;51004;54.692;9.332;2023-04-03T15:54:25;4.32;;;1.00;;
64597;SDS011;51004;54.692;9.332;2023-04-03T15:56:51;3.80;;;1.27;;
64597;SDS011;51004;54.692;9.332;2023-04-03T15:59:17;3.25;;;1.95;;
64597;SDS011;51004;54.692;9.332;2023-04-03T16:01:43;2.47;;;1.00;;
64597;SDS011;51004;54.692;9.332;2023-04-03T16:04:10;3.75;;;1.40;;
64597;SDS011;51004;54.692;9.332;2023-04-03T16:06:36;4.70;;;0.98;;
64597;SDS011;51004;54.692;9.332;2023-04-03T16:09:02;5.47;;;1.30;;
64597;SDS011;51004;54.692;9.332;2023-04-03T16:11:29;4.78;;;1.58;;
64597;SDS011;51004;54.692;9.332;2023-04-03T16:13:55;3.65;;;1.40;;
64597;SDS011;51004;54.692;9.332;2023-04-03T16:16:22;2.75;;;1.15;;
64597;SDS011;51004;54.692;9.332;2023-04-03T16:18:49;6.43;;;1.60;;
64597;SDS011;51004;54.692;9.332;2023-04-03T16:21:15;3.35;;;1.23;;
64597;SDS011;51004;54.692;9.332;2023-04-03T16:23:41;3.28;;;0.90;;
64597;SDS011;51004;54.692;9.332;2023-04-03T16:26:08;2.50;;;1.00;;
64597;SDS011;51004;54.692;9.332;2023-04-03T16:28:34;2.85;;;1.35;;